createdAt,value
2018-06-30T00:00:06.757Z,98537.78
2018-06-30T00:02:38.096Z,98535.63
2018-06-30T00:05:08.839Z,98534.11
2018-06-30T00:07:39.457Z,98533.90
2018-06-30T00:10:10.118Z,98533.71
2018-06-30T00:12:40.998Z,98536.34
2018-06-30T00:15:11.686Z,98533.88
2018-06-30T00:17:42.670Z,98534.26
2018-06-30T00:20:12.772Z,98528.24
2018-06-30T00:22:43.678Z,98534.53
2018-06-30T00:25:14.621Z,98519.45
2018-06-30T00:27:45.297Z,98520.19
2018-06-30T00:30:16.026Z,98521.52
2018-06-30T00:32:46.745Z,98520.39
2018-06-30T00:35:17.446Z,98524.30
2018-06-30T00:37:48.337Z,98517.60
2018-06-30T00:40:18.981Z,98521.28
2018-06-30T00:42:49.781Z,98527.88
2018-06-30T00:45:20.530Z,98527.88
2018-06-30T00:47:51.177Z,98530.34
2018-06-30T00:50:21.897Z,98529.89
2018-06-30T00:52:52.625Z,98522.45
2018-06-30T00:55:23.422Z,98517.55
2018-06-30T00:57:54.141Z,98518.30
2018-06-30T01:00:24.709Z,98510.72
2018-06-30T01:02:55.537Z,98513.14
2018-06-30T01:05:26.169Z,98506.27
2018-06-30T01:07:57.265Z,98500.09
2018-06-30T01:10:27.921Z,98501.28
2018-06-30T01:12:58.877Z,98504.20
2018-06-30T01:15:29.396Z,98501.63
2018-06-30T01:18:00.082Z,98496.14
2018-06-30T01:20:30.747Z,98505.02
2018-06-30T01:23:01.521Z,98509.08
2018-06-30T01:25:32.269Z,98502.38
2018-06-30T01:28:03.021Z,98505.02
2018-06-30T01:30:33.112Z,98501.59
2018-06-30T01:33:03.854Z,98497.14
2018-06-30T01:35:34.533Z,98498.20
2018-06-30T01:38:05.216Z,98494.86
2018-06-30T01:40:35.412Z,98491.55
2018-06-30T01:43:06.416Z,98492.63
2018-06-30T01:45:37.157Z,98500.13
2018-06-30T01:48:08.093Z,98496.14
2018-06-30T01:50:38.785Z,98495.88
2018-06-30T01:53:09.786Z,98491.38
2018-06-30T01:55:40.406Z,98494.77
2018-06-30T01:58:11.022Z,98492.12
2018-06-30T02:00:42.030Z,98489.63
2018-06-30T02:03:12.169Z,98487.82
2018-06-30T02:05:42.866Z,98495.09
2018-06-30T02:08:13.653Z,98496.84
2018-06-30T02:10:44.305Z,98500.20
2018-06-30T02:13:15.039Z,98498.67
2018-06-30T02:15:45.791Z,98496.80
2018-06-30T02:18:16.532Z,98494.70
2018-06-30T02:20:47.282Z,98494.13
2018-06-30T02:23:18.062Z,98500.41
2018-06-30T02:25:48.633Z,98498.83
2018-06-30T02:28:19.614Z,98493.87
2018-06-30T02:30:50.261Z,98499.89
2018-06-30T02:33:21.111Z,98507.17
2018-06-30T02:35:51.782Z,98497.26
2018-06-30T02:38:22.404Z,98498.72
2018-06-30T02:40:52.995Z,98500.96
2018-06-30T02:43:23.969Z,98502.33
2018-06-30T02:45:54.763Z,98502.55
2018-06-30T02:48:25.593Z,98512.64
2018-06-30T02:50:56.229Z,98509.80
2018-06-30T02:53:26.970Z,98512.23
2018-06-30T02:55:57.683Z,98508.45
2018-06-30T02:58:28.589Z,98501.61
2018-06-30T03:00:59.484Z,98505.05
2018-06-30T03:03:30.104Z,98507.94
2018-06-30T03:06:00.795Z,98503.73
2018-06-30T03:08:31.357Z,98504.20
2018-06-30T03:11:02.014Z,98503.78
2018-06-30T03:13:32.786Z,98503.34
2018-06-30T03:16:03.373Z,98507.48
2018-06-30T03:18:34.081Z,98511.16
2018-06-30T03:21:04.806Z,98512.91
2018-06-30T03:23:35.467Z,98510.62
2018-06-30T03:26:06.050Z,98510.33
2018-06-30T03:28:36.825Z,98516.30
2018-06-30T03:31:07.680Z,98511.58
2018-06-30T03:33:38.997Z,98517.96
2018-06-30T03:36:09.561Z,98512.48
2018-06-30T03:38:40.506Z,98515.81
2018-06-30T03:41:11.045Z,98507.53
2018-06-30T03:43:41.793Z,98508.52
2018-06-30T03:46:12.543Z,98512.83
2018-06-30T03:48:43.369Z,98514.36
2018-06-30T03:51:13.918Z,98522.72
2018-06-30T03:53:44.652Z,98529.93
2018-06-30T03:56:15.321Z,98526.66
2018-06-30T03:58:46.377Z,98527.67
2018-06-30T04:01:17.185Z,98526.02
2018-06-30T04:03:48.001Z,98527.79
2018-06-30T04:06:18.569Z,98532.00
2018-06-30T04:08:49.390Z,98532.63
2018-06-30T04:11:20.018Z,98532.62
2018-06-30T04:13:50.706Z,98533.84
2018-06-30T04:16:21.377Z,98533.52
2018-06-30T04:18:52.229Z,98538.00
2018-06-30T04:21:22.957Z,98530.30
2018-06-30T04:23:53.845Z,98535.25
2018-06-30T04:26:24.629Z,98534.50
2018-06-30T04:28:55.433Z,98541.20
2018-06-30T04:31:26.201Z,98540.77
2018-06-30T04:33:57.037Z,98533.19
2018-06-30T04:36:27.730Z,98534.31
2018-06-30T04:38:58.614Z,98530.09
2018-06-30T04:41:29.276Z,98529.87
2018-06-30T04:44:00.154Z,98526.88
2018-06-30T04:46:30.796Z,98525.56
2018-06-30T04:49:01.593Z,98519.84
2018-06-30T04:51:32.326Z,98514.89
2018-06-30T04:54:03.049Z,98518.77
2018-06-30T04:56:33.686Z,98521.08
2018-06-30T04:59:04.431Z,98524.23
2018-06-30T05:01:34.897Z,98524.18
2018-06-30T05:04:05.781Z,98530.23
2018-06-30T05:06:36.481Z,98526.42
2018-06-30T05:09:09.437Z,98527.25
2018-06-30T05:11:40.145Z,98528.87
2018-06-30T05:14:10.858Z,98531.39
2018-06-30T05:16:41.477Z,98523.89
2018-06-30T05:19:12.157Z,98530.44
2018-06-30T05:21:42.806Z,98516.66
2018-06-30T05:24:13.633Z,98520.84
2018-06-30T05:26:44.273Z,98524.79
2018-06-30T05:29:14.969Z,98519.16
2018-06-30T05:31:45.641Z,98523.10
2018-06-30T05:34:16.324Z,98523.48
2018-06-30T05:36:47.102Z,98525.55
2018-06-30T05:39:17.917Z,98521.28
2018-06-30T05:41:48.637Z,98512.73
2018-06-30T05:44:19.485Z,98516.23
2018-06-30T05:46:50.158Z,98514.16
2018-06-30T05:49:20.981Z,98510.27
2018-06-30T05:51:51.617Z,98513.89
2018-06-30T05:54:22.621Z,98515.14
2018-06-30T05:56:53.176Z,98509.19
2018-06-30T05:59:24.327Z,98506.56
2018-06-30T06:01:54.957Z,98510.22
2018-06-30T06:04:25.697Z,98502.67
2018-06-30T06:06:56.321Z,98494.80
2018-06-30T06:09:27.564Z,98495.48
2018-06-30T06:11:58.254Z,98497.64
2018-06-30T06:14:29.043Z,98497.18
2018-06-30T06:16:59.665Z,98501.23
2018-06-30T06:19:30.434Z,98497.11
2018-06-30T06:22:01.036Z,98493.75
2018-06-30T06:24:31.994Z,98493.50
2018-06-30T06:27:02.518Z,98494.92
2018-06-30T06:29:33.290Z,98492.70
2018-06-30T06:32:03.449Z,98502.09
2018-06-30T06:34:34.145Z,98494.64
2018-06-30T06:37:05.002Z,98500.13
2018-06-30T06:39:35.613Z,98500.25
2018-06-30T06:42:06.441Z,98499.93
2018-06-30T06:44:37.493Z,98503.88
2018-06-30T06:47:08.161Z,98501.52
2018-06-30T06:49:38.916Z,98499.41
2018-06-30T06:52:09.541Z,98493.88
2018-06-30T06:54:40.475Z,98492.96
2018-06-30T06:57:11.101Z,98493.86
2018-06-30T06:59:41.917Z,98479.41
2018-06-30T07:02:13.073Z,98480.87
2018-06-30T07:04:43.742Z,98486.47
2018-06-30T07:07:14.457Z,98473.41
2018-06-30T07:09:45.206Z,98479.20
2018-06-30T07:12:15.903Z,98485.14
2018-06-30T07:14:46.638Z,98486.20
2018-06-30T07:17:17.282Z,98486.16
2018-06-30T07:19:48.183Z,98487.52
2018-06-30T07:22:18.885Z,98488.81
2018-06-30T07:24:49.617Z,98489.29
2018-06-30T07:27:20.214Z,98498.49
2018-06-30T07:29:50.882Z,98486.19
2018-06-30T07:32:21.655Z,98488.42
2018-06-30T07:34:52.416Z,98490.81
2018-06-30T07:37:23.106Z,98485.23
2018-06-30T07:39:53.841Z,98494.51
2018-06-30T07:42:24.505Z,98498.05
2018-06-30T07:44:55.310Z,98494.02
2018-06-30T07:47:26.022Z,98493.39
2018-06-30T07:49:56.854Z,98492.95
2018-06-30T07:52:27.569Z,98496.52
2018-06-30T07:54:58.248Z,98493.14
2018-06-30T07:57:28.909Z,98493.78
2018-06-30T07:59:59.962Z,98500.14
2018-06-30T08:02:30.581Z,98492.55
2018-06-30T08:05:01.307Z,98490.78
2018-06-30T08:07:32.010Z,98499.45
2018-06-30T08:10:02.770Z,98496.09
2018-06-30T08:12:33.463Z,98503.59
2018-06-30T08:15:04.322Z,98500.72
2018-06-30T08:17:34.834Z,98507.61
2018-06-30T08:20:05.701Z,98502.98
2018-06-30T08:22:36.364Z,98501.13
2018-06-30T08:25:07.697Z,98504.09
2018-06-30T08:27:38.325Z,98501.96
2018-06-30T08:30:09.283Z,98503.58
2018-06-30T08:32:39.812Z,98504.26
2018-06-30T08:35:10.522Z,98497.19
2018-06-30T08:37:41.214Z,98492.14
2018-06-30T08:40:12.002Z,98497.39
2018-06-30T08:42:42.710Z,98504.28
2018-06-30T08:45:13.502Z,98506.04
2018-06-30T08:47:44.362Z,98505.07
2018-06-30T08:50:15.099Z,98508.22
2018-06-30T08:52:45.761Z,98508.63
2018-06-30T08:55:16.732Z,98511.80
2018-06-30T08:57:47.329Z,98522.89
2018-06-30T09:00:17.958Z,98533.61
2018-06-30T09:02:48.597Z,98521.82
2018-06-30T09:05:19.474Z,98535.78
2018-06-30T09:07:50.222Z,98532.95
2018-06-30T09:10:21.098Z,98532.66
2018-06-30T09:12:51.682Z,98531.81
2018-06-30T09:15:22.598Z,98544.39
2018-06-30T09:17:53.202Z,98548.19
2018-06-30T09:20:24.006Z,98558.34
2018-06-30T09:22:54.689Z,98555.41
2018-06-30T09:25:25.721Z,98547.77
2018-06-30T09:27:56.222Z,98555.02
2018-06-30T09:30:27.021Z,98559.39
2018-06-30T09:32:57.601Z,98560.35
2018-06-30T09:35:28.309Z,98559.70
2018-06-30T09:37:59.097Z,98561.02
2018-06-30T09:40:30.065Z,98554.61
2018-06-30T09:43:00.317Z,98559.22
2018-06-30T09:45:31.206Z,98566.02
2018-06-30T09:48:02.133Z,98557.12
2018-06-30T09:50:33.101Z,98558.03
2018-06-30T09:53:03.787Z,98561.82
2018-06-30T09:55:34.381Z,98548.97
2018-06-30T09:58:05.058Z,98541.14
2018-06-30T10:00:40.667Z,98552.67
2018-06-30T10:03:11.549Z,98547.41
2018-06-30T10:05:42.433Z,98543.77
2018-06-30T10:08:12.673Z,98542.42
2018-06-30T10:10:43.341Z,98553.16
2018-06-30T10:13:13.948Z,98546.08
2018-06-30T10:15:44.658Z,98541.53
2018-06-30T10:18:15.249Z,98546.98
2018-06-30T10:20:45.954Z,98537.97
2018-06-30T10:23:16.638Z,98544.45
2018-06-30T10:25:47.377Z,98532.20
2018-06-30T10:28:18.209Z,98525.45
2018-06-30T10:30:48.913Z,98523.75
2018-06-30T10:33:19.636Z,98526.20
2018-06-30T10:35:50.414Z,98523.45
2018-06-30T10:38:21.137Z,98530.39
2018-06-30T10:40:51.465Z,98527.86
2018-06-30T10:43:22.197Z,98526.38
2018-06-30T10:45:52.970Z,98514.81
2018-06-30T10:48:23.634Z,98513.20
2018-06-30T10:50:54.385Z,98510.52
2018-06-30T10:53:25.455Z,98503.45
2018-06-30T10:55:56.325Z,98502.21
2018-06-30T10:58:27.017Z,98499.91
2018-06-30T11:00:57.986Z,98497.98
2018-06-30T11:03:28.536Z,98501.89
2018-06-30T11:05:59.709Z,98485.17
2018-06-30T11:08:30.408Z,98487.20
2018-06-30T11:11:01.245Z,98482.59
2018-06-30T11:13:31.878Z,98479.30
2018-06-30T11:16:02.970Z,98470.16
2018-06-30T11:18:33.693Z,98470.79
2018-06-30T11:21:04.552Z,98477.02
2018-06-30T11:23:35.213Z,98468.08
2018-06-30T11:26:06.195Z,98466.88
2018-06-30T11:28:36.902Z,98471.63
2018-06-30T11:31:07.622Z,98462.65
2018-06-30T11:33:38.361Z,98470.43
2018-06-30T11:36:09.129Z,98481.77
2018-06-30T11:38:39.932Z,98472.53
2018-06-30T11:41:10.612Z,98464.61
2018-06-30T11:43:41.316Z,98479.80
2018-06-30T11:46:11.989Z,98478.16
2018-06-30T11:48:42.757Z,98478.46
2018-06-30T11:51:13.555Z,98481.05
2018-06-30T11:53:44.378Z,98481.06
2018-06-30T11:56:15.179Z,98483.42
2018-06-30T11:58:45.874Z,98486.98
2018-06-30T12:01:16.778Z,98467.66
2018-06-30T12:03:47.466Z,98477.77
2018-06-30T12:06:18.249Z,98474.14
2018-06-30T12:08:49.155Z,98483.30
2018-06-30T12:11:19.958Z,98482.67
2018-06-30T12:13:50.593Z,98478.84
2018-06-30T12:16:21.785Z,98485.89
2018-06-30T12:18:52.421Z,98485.73
2018-06-30T12:21:23.530Z,98482.55
2018-06-30T12:23:54.093Z,98481.47
2018-06-30T12:26:24.836Z,98481.25
2018-06-30T12:28:55.078Z,98482.95
2018-06-30T12:31:25.797Z,98476.19
2018-06-30T12:33:56.469Z,98481.20
2018-06-30T12:36:27.313Z,98471.99
2018-06-30T12:38:58.041Z,98480.70
2018-06-30T12:41:28.666Z,98475.00
2018-06-30T12:43:59.350Z,98473.25
2018-06-30T12:46:30.321Z,98483.64
2018-06-30T12:49:01.037Z,98489.42
2018-06-30T12:51:32.043Z,98488.22
2018-06-30T12:54:02.759Z,98470.83
2018-06-30T12:56:33.486Z,98481.57
2018-06-30T12:59:04.421Z,98490.55
2018-06-30T13:01:35.141Z,98483.77
2018-06-30T13:04:06.370Z,98481.61
2018-06-30T13:06:37.082Z,98489.93
2018-06-30T13:09:11.934Z,98484.98
2018-06-30T13:11:42.869Z,98488.88
2018-06-30T13:14:13.547Z,98481.02
2018-06-30T13:16:44.358Z,98476.77
2018-06-30T13:19:15.014Z,98480.12
2018-06-30T13:21:45.855Z,98478.36
2018-06-30T13:24:16.585Z,98473.25
2018-06-30T13:26:47.401Z,98473.44
2018-06-30T13:29:18.157Z,98470.84
2018-06-30T13:31:48.969Z,98474.39
2018-06-30T13:34:19.563Z,98470.16
2018-06-30T13:36:50.389Z,98465.69
2018-06-30T13:39:21.130Z,98473.94
2018-06-30T13:41:51.938Z,98482.23
2018-06-30T13:44:22.643Z,98467.17
2018-06-30T13:46:53.513Z,98471.34
2018-06-30T13:49:24.114Z,98476.87
2018-06-30T13:51:54.994Z,98464.06
2018-06-30T13:54:25.685Z,98462.27
2018-06-30T13:56:56.554Z,98465.20
2018-06-30T13:59:27.258Z,98460.16
2018-06-30T14:01:57.849Z,98464.61
2018-06-30T14:04:28.614Z,98469.45
2018-06-30T14:06:59.126Z,98476.52
2018-06-30T14:09:29.754Z,98479.94
2018-06-30T14:12:00.516Z,98487.20
2018-06-30T14:14:31.133Z,98486.00
2018-06-30T14:17:01.984Z,98488.62
2018-06-30T14:19:32.719Z,98490.59
2018-06-30T14:22:03.693Z,98499.16
2018-06-30T14:24:34.351Z,98503.70
2018-06-30T14:27:05.093Z,98509.08
2018-06-30T14:29:35.677Z,98505.92
2018-06-30T14:32:06.464Z,98518.50
2018-06-30T14:34:37.157Z,98519.13
2018-06-30T14:37:07.942Z,98513.16
2018-06-30T14:39:38.569Z,98511.28
2018-06-30T14:42:09.425Z,98505.50
2018-06-30T14:44:40.072Z,98505.88
2018-06-30T14:47:11.098Z,98502.90
2018-06-30T14:49:42.000Z,98501.85
2018-06-30T14:52:12.761Z,98505.41
2018-06-30T14:54:43.447Z,98500.34
2018-06-30T14:57:14.166Z,98499.80
2018-06-30T14:59:44.765Z,98500.52
2018-06-30T15:02:15.515Z,98493.52
2018-06-30T15:04:46.513Z,98499.30
2018-06-30T15:07:17.217Z,98500.03
2018-06-30T15:09:47.893Z,98495.83
2018-06-30T15:12:18.714Z,98491.17
2018-06-30T15:14:49.363Z,98496.11
2018-06-30T15:17:20.242Z,98497.63
2018-06-30T15:19:50.920Z,98493.88
2018-06-30T15:22:21.819Z,98496.75
2018-06-30T15:24:52.454Z,98497.06
2018-06-30T15:27:23.020Z,98507.73
2018-06-30T15:29:53.653Z,98511.41
2018-06-30T15:32:24.530Z,98514.39
2018-06-30T15:34:54.528Z,98511.22
2018-06-30T15:37:25.639Z,98512.59
2018-06-30T15:39:56.444Z,98522.41
2018-06-30T15:42:27.565Z,98526.39
2018-06-30T15:44:58.318Z,98529.82
2018-06-30T15:47:29.241Z,98528.05
2018-06-30T15:49:59.948Z,98537.05
2018-06-30T15:52:30.672Z,98543.47
2018-06-30T15:55:01.178Z,98550.27
2018-06-30T15:57:32.130Z,98558.05
2018-06-30T16:00:02.801Z,98555.27
2018-06-30T16:02:33.838Z,98565.67
2018-06-30T16:05:04.551Z,98555.95
2018-06-30T16:07:35.226Z,98565.16
2018-06-30T16:10:05.961Z,98565.45
2018-06-30T16:12:36.697Z,98571.60
2018-06-30T16:15:07.624Z,98569.05
2018-06-30T16:17:38.814Z,98562.19
2018-06-30T16:20:09.509Z,98570.41
2018-06-30T16:22:40.090Z,98577.09
2018-06-30T16:25:10.716Z,98569.68
2018-06-30T16:27:41.594Z,98575.16
2018-06-30T16:30:13.145Z,98566.03
2018-06-30T16:32:44.161Z,98565.89
2018-06-30T16:35:14.876Z,98567.05
2018-06-30T16:37:46.506Z,98565.31
2018-06-30T16:40:16.759Z,98577.95
2018-06-30T16:42:47.397Z,98578.83
2018-06-30T16:45:18.027Z,98579.39
2018-06-30T16:47:48.739Z,98583.25
2018-06-30T16:50:19.449Z,98587.33
2018-06-30T16:52:50.209Z,98591.37
2018-06-30T16:55:20.934Z,98596.70
2018-06-30T16:57:51.881Z,98602.59
2018-06-30T17:00:22.630Z,98611.70
2018-06-30T17:02:53.466Z,98613.94
2018-06-30T17:05:24.127Z,98626.64
2018-06-30T17:07:54.962Z,98636.49
2018-06-30T17:10:25.607Z,98640.17
2018-06-30T17:12:56.537Z,98645.63
2018-06-30T17:15:27.281Z,98649.09
2018-06-30T17:17:58.298Z,98655.65
2018-06-30T17:20:28.941Z,98658.86
2018-06-30T17:22:59.926Z,98664.69
2018-06-30T17:25:30.525Z,98662.82
2018-06-30T17:28:01.449Z,98675.63
2018-06-30T17:30:32.065Z,98679.27
2018-06-30T17:33:02.861Z,98679.45
2018-06-30T17:35:33.549Z,98674.27
2018-06-30T17:38:04.273Z,98688.27
2018-06-30T17:40:34.909Z,98696.15
2018-06-30T17:43:05.774Z,98698.65
2018-06-30T17:45:36.482Z,98710.29
2018-06-30T17:48:07.360Z,98713.67
2018-06-30T17:50:38.054Z,98714.91
2018-06-30T17:53:08.842Z,98724.55
2018-06-30T17:55:39.569Z,98726.02
2018-06-30T17:58:10.331Z,98727.73
2018-06-30T18:00:40.814Z,98735.37
2018-06-30T18:03:11.613Z,98734.73
2018-06-30T18:05:42.298Z,98733.23
2018-06-30T18:08:13.229Z,98739.75
2018-06-30T18:10:43.915Z,98737.11
2018-06-30T18:13:14.629Z,98744.48
2018-06-30T18:15:45.321Z,98747.64
2018-06-30T18:18:16.162Z,98752.72
2018-06-30T18:20:46.877Z,98755.59
2018-06-30T18:23:17.753Z,98759.67
2018-06-30T18:25:48.529Z,98756.70
2018-06-30T18:28:19.213Z,98757.06
2018-06-30T18:30:49.386Z,98757.62
2018-06-30T18:33:20.401Z,98759.17
2018-06-30T18:35:51.102Z,98766.99
2018-06-30T18:38:21.873Z,98768.39
2018-06-30T18:40:52.561Z,98773.33
2018-06-30T18:43:23.429Z,98784.47
2018-06-30T18:45:54.138Z,98792.44
2018-06-30T18:48:24.865Z,98797.84
2018-06-30T18:50:55.551Z,98804.09
2018-06-30T18:53:26.550Z,98812.12
2018-06-30T18:55:57.482Z,98823.34
2018-06-30T18:58:28.385Z,98824.45
2018-06-30T19:00:59.001Z,98821.44
2018-06-30T19:03:29.769Z,98833.39
2018-06-30T19:06:00.418Z,98838.04
2018-06-30T19:08:31.287Z,98842.23
2018-06-30T19:11:01.880Z,98852.01
2018-06-30T19:13:32.694Z,98847.05
2018-06-30T19:16:03.610Z,98857.15
2018-06-30T19:18:34.539Z,98861.45
2018-06-30T19:21:05.035Z,98864.77
2018-06-30T19:23:35.761Z,98866.92
2018-06-30T19:26:07.426Z,98873.49
2018-06-30T19:28:39.136Z,98880.59
2018-06-30T19:31:10.706Z,98892.47
2018-06-30T19:33:41.490Z,98901.84
2018-06-30T19:36:12.141Z,98900.18
2018-06-30T19:38:42.915Z,98907.12
2018-06-30T19:41:14.339Z,98917.19
2018-06-30T19:43:45.341Z,98914.38
2018-06-30T19:46:15.953Z,98919.60
2018-06-30T19:48:47.619Z,98927.72
2018-06-30T19:51:18.380Z,98934.16
2018-06-30T19:53:49.105Z,98943.11
2018-06-30T19:56:19.826Z,98948.95
2018-06-30T19:58:50.681Z,98942.80
2018-06-30T20:01:21.349Z,98954.06
2018-06-30T20:03:52.214Z,98947.97
2018-06-30T20:06:22.881Z,98952.72
2018-06-30T20:08:53.614Z,98964.58
2018-06-30T20:11:24.258Z,98961.03
2018-06-30T20:13:55.489Z,98969.38
2018-06-30T20:16:26.338Z,98971.89
2018-06-30T20:18:57.033Z,98982.63
2018-06-30T20:21:27.701Z,98976.34
2018-06-30T20:23:58.525Z,98977.55
2018-06-30T20:26:29.215Z,98985.69
2018-06-30T20:28:59.869Z,98985.17
2018-06-30T20:31:30.613Z,98988.48
2018-06-30T20:34:01.510Z,98997.11
2018-06-30T20:36:32.409Z,98998.88
2018-06-30T20:39:03.294Z,98993.53
2018-06-30T20:41:33.990Z,98997.88
2018-06-30T20:44:04.879Z,98999.94
2018-06-30T20:46:35.450Z,99005.90
2018-06-30T20:49:06.346Z,99008.75
2018-06-30T20:51:37.113Z,99014.36
2018-06-30T20:54:07.983Z,99015.80
2018-06-30T20:56:38.791Z,99014.78
2018-06-30T20:59:09.506Z,99013.66
2018-06-30T21:01:40.208Z,99014.39
2018-06-30T21:04:11.150Z,99019.13
2018-06-30T21:06:41.890Z,99018.95
2018-06-30T21:09:13.119Z,99021.61
2018-06-30T21:11:43.730Z,99014.86
2018-06-30T21:14:14.409Z,99027.80
2018-06-30T21:16:45.066Z,99024.47
2018-06-30T21:19:16.062Z,99023.38
2018-06-30T21:21:46.741Z,99031.75
2018-06-30T21:24:17.880Z,99033.67
2018-06-30T21:26:48.437Z,99034.04
2018-06-30T21:29:19.147Z,99034.94
2018-06-30T21:31:49.709Z,99034.61
2018-06-30T21:34:20.521Z,99039.64
2018-06-30T21:36:51.317Z,99029.97
2018-06-30T21:39:22.026Z,99030.58
2018-06-30T21:41:52.571Z,99038.20
2018-06-30T21:44:23.292Z,99039.71
2018-06-30T21:46:54.421Z,99040.45
2018-06-30T21:49:25.174Z,99041.20
2018-06-30T21:51:55.997Z,99042.83
2018-06-30T21:54:26.648Z,99040.16
2018-06-30T21:56:57.245Z,99047.52
2018-06-30T21:59:28.045Z,99049.77
2018-06-30T22:01:58.693Z,99051.70
2018-06-30T22:04:29.482Z,99044.22
2018-06-30T22:07:00.394Z,99036.20
2018-06-30T22:09:31.054Z,99051.09
2018-06-30T22:12:01.831Z,99043.80
2018-06-30T22:14:32.518Z,99054.73
2018-06-30T22:17:03.353Z,99050.09
2018-06-30T22:19:34.021Z,99050.89
2018-06-30T22:22:04.982Z,99052.18
2018-06-30T22:24:35.542Z,99052.97
2018-06-30T22:27:06.489Z,99052.83
2018-06-30T22:29:37.072Z,99053.97
2018-06-30T22:32:09.373Z,99054.52
2018-06-30T22:34:40.062Z,99061.29
2018-06-30T22:37:10.666Z,99063.16
2018-06-30T22:39:57.399Z,99070.09
2018-06-30T22:42:28.141Z,99068.55
2018-06-30T22:44:58.753Z,99078.66
2018-06-30T22:47:29.433Z,99071.55
2018-06-30T22:50:00.178Z,99071.64
2018-06-30T22:52:30.922Z,99069.66
2018-06-30T22:55:01.470Z,99081.81
2018-06-30T22:57:32.293Z,99079.78
2018-06-30T23:00:03.013Z,99085.79
2018-06-30T23:02:33.772Z,99084.33
2018-06-30T23:05:04.554Z,99081.16
2018-06-30T23:07:35.598Z,99078.25
2018-06-30T23:10:06.474Z,99080.48
2018-06-30T23:12:37.158Z,99081.32
2018-06-30T23:15:08.391Z,99079.60
2018-06-30T23:17:40.052Z,99085.25
2018-06-30T23:20:10.676Z,99086.22
2018-06-30T23:23:04.527Z,99090.38
2018-06-30T23:25:35.749Z,99089.36
2018-06-30T23:28:06.508Z,99096.25
2018-06-30T23:30:37.256Z,99088.39
2018-06-30T23:33:07.974Z,99092.63
2018-06-30T23:35:38.433Z,99089.80
2018-06-30T23:38:09.166Z,99095.02
2018-06-30T23:40:39.842Z,99092.41
2018-06-30T23:43:10.654Z,99099.03
2018-06-30T23:45:41.414Z,99097.34
2018-06-30T23:48:12.505Z,99107.58
2018-06-30T23:50:43.134Z,99109.16
2018-06-30T23:53:13.873Z,99107.91
2018-06-30T23:55:44.598Z,99120.52
2018-06-30T23:58:15.285Z,99126.11
